sensor_id;sensor_type;location;lat;lon;timestamp;P1;durP1;ratioP1;P2;durP2;ratioP2
8704;SDS011;4389;41.932;25.904;2023-11-22T00:01:11;13.57;;;8.27;;
8704;SDS011;4389;41.932;25.904;2023-11-22T00:03:38;13.20;;;8.90;;
8704;SDS011;4389;41.932;25.904;2023-11-22T00:06:05;12.70;;;8.33;;
8704;SDS011;4389;41.932;25.904;2023-11-22T00:08:33;12.37;;;8.53;;
8704;SDS011;4389;41.932;25.904;2023-11-22T00:11:00;10.77;;;8.10;;
8704;SDS011;4389;41.932;25.904;2023-11-22T00:13:28;10.97;;;7.67;;
8704;SDS011;4389;41.932;25.904;2023-11-22T00:15:57;11.83;;;8.23;;
8704;SDS011;4389;41.932;25.904;2023-11-22T00:18:24;10.73;;;8.10;;
8704;SDS011;4389;41.932;25.904;2023-11-22T00:20:52;8.67;;;7.33;;
8704;SDS011;4389;41.932;25.904;2023-11-22T00:23:20;12.10;;;8.17;;
8704;SDS011;4389;41.932;25.904;2023-11-22T00:25:52;14.57;;;8.77;;
8704;SDS011;4389;41.932;25.904;2023-11-22T00:28:19;12.13;;;8.07;;
8704;SDS011;4389;41.932;25.904;2023-11-22T00:30:47;11.83;;;7.97;;
8704;SDS011;4389;41.932;25.904;2023-11-22T00:33:14;14.07;;;7.87;;
8704;SDS011;4389;41.932;25.904;2023-11-22T00:35:43;10.07;;;7.70;;
8704;SDS011;4389;41.932;25.904;2023-11-22T00:38:10;10.53;;;7.47;;
8704;SDS011;4389;41.932;25.904;2023-11-22T00:40:37;12.43;;;8.90;;
8704;SDS011;4389;41.932;25.904;2023-11-22T00:43:04;11.17;;;8.40;;
8704;SDS011;4389;41.932;25.904;2023-11-22T00:45:31;11.43;;;8.27;;
8704;SDS011;4389;41.932;25.904;2023-11-22T00:48:00;10.87;;;8.33;;
8704;SDS011;4389;41.932;25.904;2023-11-22T00:50:27;13.97;;;8.57;;
8704;SDS011;4389;41.932;25.904;2023-11-22T00:52:54;12.37;;;8.00;;
8704;SDS011;4389;41.932;25.904;2023-11-22T00:55:21;12.60;;;8.23;;
8704;SDS011;4389;41.932;25.904;2023-11-22T00:57:48;14.60;;;8.27;;
8704;SDS011;4389;41.932;25.904;2023-11-22T01:00:15;8.53;;;7.43;;
8704;SDS011;4389;41.932;25.904;2023-11-22T01:02:42;15.80;;;8.20;;
8704;SDS011;4389;41.932;25.904;2023-11-22T01:05:11;17.37;;;8.23;;
8704;SDS011;4389;41.932;25.904;2023-11-22T01:07:38;13.33;;;8.17;;
8704;SDS011;4389;41.932;25.904;2023-11-22T01:10:06;13.20;;;8.30;;
8704;SDS011;4389;41.932;25.904;2023-11-22T01:12:33;11.87;;;8.07;;
8704;SDS011;4389;41.932;25.904;2023-11-22T01:15:00;12.90;;;6.97;;
8704;SDS011;4389;41.932;25.904;2023-11-22T01:17:27;10.17;;;7.50;;
8704;SDS011;4389;41.932;25.904;2023-11-22T01:19:53;9.33;;;7.00;;
8704;SDS011;4389;41.932;25.904;2023-11-22T01:22:22;13.10;;;7.80;;
8704;SDS011;4389;41.932;25.904;2023-11-22T01:24:49;10.30;;;7.70;;
8704;SDS011;4389;41.932;25.904;2023-11-22T01:27:15;14.00;;;8.10;;
8704;SDS011;4389;41.932;25.904;2023-11-22T01:29:43;10.93;;;7.47;;
8704;SDS011;4389;41.932;25.904;2023-11-22T01:32:09;13.53;;;8.53;;
8704;SDS011;4389;41.932;25.904;2023-11-22T01:34:36;12.13;;;8.13;;
8704;SDS011;4389;41.932;25.904;2023-11-22T01:37:04;14.27;;;8.90;;
8704;SDS011;4389;41.932;25.904;2023-11-22T01:39:32;14.17;;;7.93;;
8704;SDS011;4389;41.932;25.904;2023-11-22T01:41:59;11.37;;;7.63;;
8704;SDS011;4389;41.932;25.904;2023-11-22T01:44:26;15.57;;;8.27;;
8704;SDS011;4389;41.932;25.904;2023-11-22T01:46:52;14.60;;;8.97;;
8704;SDS011;4389;41.932;25.904;2023-11-22T01:49:20;10.50;;;7.63;;
8704;SDS011;4389;41.932;25.904;2023-11-22T01:51:49;9.20;;;8.23;;
8704;SDS011;4389;41.932;25.904;2023-11-22T01:54:16;10.00;;;7.90;;
8704;SDS011;4389;41.932;25.904;2023-11-22T01:56:47;12.77;;;8.20;;
8704;SDS011;4389;41.932;25.904;2023-11-22T01:59:14;12.93;;;7.87;;
8704;SDS011;4389;41.932;25.904;2023-11-22T02:01:42;10.90;;;7.90;;
8704;SDS011;4389;41.932;25.904;2023-11-22T02:04:11;16.40;;;7.63;;
8704;SDS011;4389;41.932;25.904;2023-11-22T02:06:39;12.30;;;7.70;;
8704;SDS011;4389;41.932;25.904;2023-11-22T02:09:06;20.13;;;7.97;;
8704;SDS011;4389;41.932;25.904;2023-11-22T02:11:38;20.03;;;8.40;;
8704;SDS011;4389;41.932;25.904;2023-11-22T02:14:07;15.83;;;8.47;;
8704;SDS011;4389;41.932;25.904;2023-11-22T02:16:34;13.80;;;8.80;;
8704;SDS011;4389;41.932;25.904;2023-11-22T02:19:04;19.07;;;8.00;;
8704;SDS011;4389;41.932;25.904;2023-11-22T02:21:33;18.37;;;8.57;;
8704;SDS011;4389;41.932;25.904;2023-11-22T02:24:01;16.63;;;8.93;;
8704;SDS011;4389;41.932;25.904;2023-11-22T02:26:28;16.03;;;11.10;;
8704;SDS011;4389;41.932;25.904;2023-11-22T02:28:57;19.43;;;12.57;;
8704;SDS011;4389;41.932;25.904;2023-11-22T02:31:25;18.17;;;13.67;;
8704;SDS011;4389;41.932;25.904;2023-11-22T02:33:52;22.23;;;13.37;;
8704;SDS011;4389;41.932;25.904;2023-11-22T02:36:20;19.53;;;11.90;;
8704;SDS011;4389;41.932;25.904;2023-11-22T02:38:47;18.87;;;14.97;;
8704;SDS011;4389;41.932;25.904;2023-11-22T02:41:17;22.90;;;14.47;;
8704;SDS011;4389;41.932;25.904;2023-11-22T02:43:44;19.73;;;14.43;;
8704;SDS011;4389;41.932;25.904;2023-11-22T02:46:11;19.70;;;13.00;;
8704;SDS011;4389;41.932;25.904;2023-11-22T02:48:39;20.70;;;14.60;;
8704;SDS011;4389;41.932;25.904;2023-11-22T02:51:06;19.83;;;14.83;;
8704;SDS011;4389;41.932;25.904;2023-11-22T02:53:32;20.60;;;14.67;;
8704;SDS011;4389;41.932;25.904;2023-11-22T02:56:00;21.90;;;15.30;;
8704;SDS011;4389;41.932;25.904;2023-11-22T02:58:29;23.30;;;16.00;;
8704;SDS011;4389;41.932;25.904;2023-11-22T03:00:56;23.70;;;18.10;;
8704;SDS011;4389;41.932;25.904;2023-11-22T03:03:23;21.90;;;19.20;;
8704;SDS011;4389;41.932;25.904;2023-11-22T03:05:50;29.77;;;18.53;;
8704;SDS011;4389;41.932;25.904;2023-11-22T03:08:17;21.70;;;17.27;;
8704;SDS011;4389;41.932;25.904;2023-11-22T03:10:44;20.77;;;16.33;;
8704;SDS011;4389;41.932;25.904;2023-11-22T03:13:11;21.20;;;16.50;;
8704;SDS011;4389;41.932;25.904;2023-11-22T03:15:40;21.20;;;14.60;;
8704;SDS011;4389;41.932;25.904;2023-11-22T03:18:07;27.10;;;16.67;;
8704;SDS011;4389;41.932;25.904;2023-11-22T03:20:36;23.83;;;15.10;;
8704;SDS011;4389;41.932;25.904;2023-11-22T03:23:04;23.13;;;14.27;;
8704;SDS011;4389;41.932;25.904;2023-11-22T03:25:31;29.23;;;13.83;;
8704;SDS011;4389;41.932;25.904;2023-11-22T03:27:58;20.67;;;13.60;;
8704;SDS011;4389;41.932;25.904;2023-11-22T03:30:25;18.43;;;13.30;;
8704;SDS011;4389;41.932;25.904;2023-11-22T03:32:53;22.33;;;14.73;;
8704;SDS011;4389;41.932;25.904;2023-11-22T03:35:20;18.27;;;14.40;;
8704;SDS011;4389;41.932;25.904;2023-11-22T03:37:47;21.17;;;15.20;;
8704;SDS011;4389;41.932;25.904;2023-11-22T03:40:14;24.70;;;14.70;;
8704;SDS011;4389;41.932;25.904;2023-11-22T03:42:41;21.63;;;14.63;;
8704;SDS011;4389;41.932;25.904;2023-11-22T03:45:08;25.03;;;14.27;;
8704;SDS011;4389;41.932;25.904;2023-11-22T03:47:37;21.20;;;15.23;;
8704;SDS011;4389;41.932;25.904;2023-11-22T03:50:06;19.70;;;13.77;;
8704;SDS011;4389;41.932;25.904;2023-11-22T03:52:35;18.43;;;13.97;;
8704;SDS011;4389;41.932;25.904;2023-11-22T03:55:02;24.63;;;14.90;;
8704;SDS011;4389;41.932;25.904;2023-11-22T03:57:30;20.93;;;15.30;;
8704;SDS011;4389;41.932;25.904;2023-11-22T03:59:57;19.70;;;15.03;;
8704;SDS011;4389;41.932;25.904;2023-11-22T04:02:24;23.40;;;15.00;;
8704;SDS011;4389;41.932;25.904;2023-11-22T04:04:52;19.87;;;14.53;;
8704;SDS011;4389;41.932;25.904;2023-11-22T04:07:21;21.30;;;14.60;;
8704;SDS011;4389;41.932;25.904;2023-11-22T04:09:48;22.97;;;14.87;;
8704;SDS011;4389;41.932;25.904;2023-11-22T04:12:15;34.83;;;21.80;;
8704;SDS011;4389;41.932;25.904;2023-11-22T04:14:42;25.20;;;15.10;;
8704;SDS011;4389;41.932;25.904;2023-11-22T04:17:10;21.23;;;14.30;;
8704;SDS011;4389;41.932;25.904;2023-11-22T04:19:37;22.37;;;15.43;;
8704;SDS011;4389;41.932;25.904;2023-11-22T04:22:04;22.97;;;14.77;;
8704;SDS011;4389;41.932;25.904;2023-11-22T04:24:32;27.47;;;14.33;;
8704;SDS011;4389;41.932;25.904;2023-11-22T04:26:59;22.63;;;13.87;;
8704;SDS011;4389;41.932;25.904;2023-11-22T04:29:27;16.53;;;14.60;;
8704;SDS011;4389;41.932;25.904;2023-11-22T04:31:53;23.47;;;15.37;;
8704;SDS011;4389;41.932;25.904;2023-11-22T04:34:20;23.53;;;15.73;;
8704;SDS011;4389;41.932;25.904;2023-11-22T04:36:47;22.03;;;14.57;;
8704;SDS011;4389;41.932;25.904;2023-11-22T04:39:14;23.53;;;15.17;;
8704;SDS011;4389;41.932;25.904;2023-11-22T04:41:44;23.77;;;15.47;;
8704;SDS011;4389;41.932;25.904;2023-11-22T04:44:11;23.60;;;14.93;;
8704;SDS011;4389;41.932;25.904;2023-11-22T04:46:37;24.20;;;15.33;;
8704;SDS011;4389;41.932;25.904;2023-11-22T04:49:05;24.70;;;15.60;;
8704;SDS011;4389;41.932;25.904;2023-11-22T04:51:32;22.10;;;16.93;;
8704;SDS011;4389;41.932;25.904;2023-11-22T04:53:59;22.97;;;17.30;;
8704;SDS011;4389;41.932;25.904;2023-11-22T04:56:26;23.03;;;16.43;;
8704;SDS011;4389;41.932;25.904;2023-11-22T04:58:55;25.73;;;14.80;;
8704;SDS011;4389;41.932;25.904;2023-11-22T05:01:22;20.53;;;13.90;;
8704;SDS011;4389;41.932;25.904;2023-11-22T05:03:50;26.60;;;14.03;;
8704;SDS011;4389;41.932;25.904;2023-11-22T05:06:17;20.27;;;13.93;;
8704;SDS011;4389;41.932;25.904;2023-11-22T05:08:44;21.47;;;13.23;;
8704;SDS011;4389;41.932;25.904;2023-11-22T05:11:11;30.83;;;17.23;;
8704;SDS011;4389;41.932;25.904;2023-11-22T05:13:38;21.90;;;14.93;;
8704;SDS011;4389;41.932;25.904;2023-11-22T05:16:06;19.73;;;13.80;;
8704;SDS011;4389;41.932;25.904;2023-11-22T05:18:34;31.00;;;13.70;;
8704;SDS011;4389;41.932;25.904;2023-11-22T05:21:01;26.20;;;14.13;;
8704;SDS011;4389;41.932;25.904;2023-11-22T05:23:29;22.77;;;14.73;;
8704;SDS011;4389;41.932;25.904;2023-11-22T05:25:56;28.87;;;14.63;;
8704;SDS011;4389;41.932;25.904;2023-11-22T05:28:24;21.53;;;14.40;;
8704;SDS011;4389;41.932;25.904;2023-11-22T05:30:51;21.40;;;14.73;;
8704;SDS011;4389;41.932;25.904;2023-11-22T05:33:20;26.50;;;17.17;;
8704;SDS011;4389;41.932;25.904;2023-11-22T05:35:46;31.67;;;24.70;;
8704;SDS011;4389;41.932;25.904;2023-11-22T05:38:13;33.97;;;26.83;;
8704;SDS011;4389;41.932;25.904;2023-11-22T05:40:40;46.97;;;29.87;;
8704;SDS011;4389;41.932;25.904;2023-11-22T05:43:08;40.57;;;24.90;;
8704;SDS011;4389;41.932;25.904;2023-11-22T05:45:35;41.13;;;20.17;;
8704;SDS011;4389;41.932;25.904;2023-11-22T05:48:02;27.83;;;17.43;;
8704;SDS011;4389;41.932;25.904;2023-11-22T05:50:31;27.20;;;15.20;;
8704;SDS011;4389;41.932;25.904;2023-11-22T05:52:58;24.97;;;14.90;;
8704;SDS011;4389;41.932;25.904;2023-11-22T05:55:25;24.23;;;15.17;;
8704;SDS011;4389;41.932;25.904;2023-11-22T05:57:53;28.87;;;15.77;;
8704;SDS011;4389;41.932;25.904;2023-11-22T06:00:20;21.23;;;14.67;;
8704;SDS011;4389;41.932;25.904;2023-11-22T06:02:47;38.53;;;18.53;;
8704;SDS011;4389;41.932;25.904;2023-11-22T06:05:13;31.27;;;16.07;;
8704;SDS011;4389;41.932;25.904;2023-11-22T06:07:42;28.33;;;16.17;;
8704;SDS011;4389;41.932;25.904;2023-11-22T06:10:09;34.87;;;16.77;;
8704;SDS011;4389;41.932;25.904;2023-11-22T06:12:38;23.80;;;14.57;;
8704;SDS011;4389;41.932;25.904;2023-11-22T06:15:05;27.40;;;13.90;;
8704;SDS011;4389;41.932;25.904;2023-11-22T06:17:33;18.10;;;13.27;;
8704;SDS011;4389;41.932;25.904;2023-11-22T06:20:00;20.83;;;14.17;;
8704;SDS011;4389;41.932;25.904;2023-11-22T06:22:28;27.70;;;15.20;;
8704;SDS011;4389;41.932;25.904;2023-11-22T06:24:57;28.67;;;15.03;;
8704;SDS011;4389;41.932;25.904;2023-11-22T06:27:24;41.27;;;19.37;;
8704;SDS011;4389;41.932;25.904;2023-11-22T06:29:51;33.87;;;16.07;;
8704;SDS011;4389;41.932;25.904;2023-11-22T06:32:18;30.67;;;17.43;;
8704;SDS011;4389;41.932;25.904;2023-11-22T06:34:45;29.60;;;16.30;;
8704;SDS011;4389;41.932;25.904;2023-11-22T06:37:12;33.83;;;18.60;;
8704;SDS011;4389;41.932;25.904;2023-11-22T06:39:38;25.63;;;17.60;;
8704;SDS011;4389;41.932;25.904;2023-11-22T06:42:07;34.13;;;19.30;;
8704;SDS011;4389;41.932;25.904;2023-11-22T06:44:34;36.17;;;18.20;;
8704;SDS011;4389;41.932;25.904;2023-11-22T06:47:01;21.43;;;14.33;;
8704;SDS011;4389;41.932;25.904;2023-11-22T06:49:28;21.70;;;15.83;;
8704;SDS011;4389;41.932;25.904;2023-11-22T06:51:55;24.13;;;15.20;;
8704;SDS011;4389;41.932;25.904;2023-11-22T06:54:22;21.23;;;16.13;;
8704;SDS011;4389;41.932;25.904;2023-11-22T06:56:49;31.20;;;17.93;;
8704;SDS011;4389;41.932;25.904;2023-11-22T06:59:17;21.33;;;15.87;;
8704;SDS011;4389;41.932;25.904;2023-11-22T07:01:44;24.37;;;15.10;;
8704;SDS011;4389;41.932;25.904;2023-11-22T07:04:11;27.03;;;18.07;;
8704;SDS011;4389;41.932;25.904;2023-11-22T07:06:38;22.47;;;16.43;;
8704;SDS011;4389;41.932;25.904;2023-11-22T07:09:05;25.83;;;15.77;;
8704;SDS011;4389;41.932;25.904;2023-11-22T07:11:34;27.07;;;16.67;;
8704;SDS011;4389;41.932;25.904;2023-11-22T07:14:02;29.13;;;18.53;;
8704;SDS011;4389;41.932;25.904;2023-11-22T07:16:31;24.60;;;15.97;;
8704;SDS011;4389;41.932;25.904;2023-11-22T07:18:58;27.37;;;18.33;;
8704;SDS011;4389;41.932;25.904;2023-11-22T07:21:28;21.43;;;15.43;;
8704;SDS011;4389;41.932;25.904;2023-11-22T07:23:55;23.03;;;17.50;;
8704;SDS011;4389;41.932;25.904;2023-11-22T07:26:22;23.80;;;18.50;;
8704;SDS011;4389;41.932;25.904;2023-11-22T07:28:52;28.10;;;20.47;;
8704;SDS011;4389;41.932;25.904;2023-11-22T07:31:19;30.00;;;22.03;;
8704;SDS011;4389;41.932;25.904;2023-11-22T07:33:47;30.17;;;21.63;;
8704;SDS011;4389;41.932;25.904;2023-11-22T07:36:14;32.33;;;21.73;;
8704;SDS011;4389;41.932;25.904;2023-11-22T07:38:42;29.07;;;22.50;;
8704;SDS011;4389;41.932;25.904;2023-11-22T07:41:09;27.87;;;21.00;;
8704;SDS011;4389;41.932;25.904;2023-11-22T07:43:37;32.13;;;21.47;;
8704;SDS011;4389;41.932;25.904;2023-11-22T07:46:04;36.50;;;20.90;;
8704;SDS011;4389;41.932;25.904;2023-11-22T07:48:33;34.93;;;21.90;;
8704;SDS011;4389;41.932;25.904;2023-11-22T07:51:04;34.57;;;20.73;;
8704;SDS011;4389;41.932;25.904;2023-11-22T07:53:32;36.73;;;23.57;;
8704;SDS011;4389;41.932;25.904;2023-11-22T07:55:59;35.70;;;24.77;;
8704;SDS011;4389;41.932;25.904;2023-11-22T07:58:29;30.93;;;24.07;;
8704;SDS011;4389;41.932;25.904;2023-11-22T08:00:56;35.10;;;25.17;;
8704;SDS011;4389;41.932;25.904;2023-11-22T08:03:24;34.40;;;22.73;;
8704;SDS011;4389;41.932;25.904;2023-11-22T08:05:51;38.23;;;27.97;;
8704;SDS011;4389;41.932;25.904;2023-11-22T08:08:22;34.70;;;24.77;;
8704;SDS011;4389;41.932;25.904;2023-11-22T08:10:49;33.23;;;24.20;;
8704;SDS011;4389;41.932;25.904;2023-11-22T08:13:18;37.13;;;24.93;;
8704;SDS011;4389;41.932;25.904;2023-11-22T08:15:48;34.33;;;23.93;;
8704;SDS011;4389;41.932;25.904;2023-11-22T08:18:15;34.83;;;24.33;;
8704;SDS011;4389;41.932;25.904;2023-11-22T08:20:42;30.80;;;24.83;;
8704;SDS011;4389;41.932;25.904;2023-11-22T08:23:09;36.00;;;22.03;;
8704;SDS011;4389;41.932;25.904;2023-11-22T08:25:39;27.40;;;21.37;;
8704;SDS011;4389;41.932;25.904;2023-11-22T08:28:06;32.07;;;21.63;;
8704;SDS011;4389;41.932;25.904;2023-11-22T08:30:33;30.23;;;21.90;;
8704;SDS011;4389;41.932;25.904;2023-11-22T08:33:02;29.40;;;22.10;;
8704;SDS011;4389;41.932;25.904;2023-11-22T08:35:29;24.93;;;20.37;;
8704;SDS011;4389;41.932;25.904;2023-11-22T08:37:55;27.90;;;21.07;;
8704;SDS011;4389;41.932;25.904;2023-11-22T08:40:23;34.63;;;20.37;;
8704;SDS011;4389;41.932;25.904;2023-11-22T08:42:52;30.33;;;21.67;;
8704;SDS011;4389;41.932;25.904;2023-11-22T08:45:19;28.67;;;21.90;;
8704;SDS011;4389;41.932;25.904;2023-11-22T08:47:46;25.53;;;21.17;;
8704;SDS011;4389;41.932;25.904;2023-11-22T08:50:16;30.37;;;21.30;;
8704;SDS011;4389;41.932;25.904;2023-11-22T08:52:43;31.27;;;22.13;;
8704;SDS011;4389;41.932;25.904;2023-11-22T08:55:12;31.97;;;23.33;;
8704;SDS011;4389;41.932;25.904;2023-11-22T08:57:40;28.90;;;21.87;;
8704;SDS011;4389;41.932;25.904;2023-11-22T09:00:08;36.83;;;23.03;;
8704;SDS011;4389;41.932;25.904;2023-11-22T09:02:36;33.40;;;23.60;;
8704;SDS011;4389;41.932;25.904;2023-11-22T09:05:04;25.60;;;21.20;;
8704;SDS011;4389;41.932;25.904;2023-11-22T09:07:34;31.00;;;22.37;;
8704;SDS011;4389;41.932;25.904;2023-11-22T09:10:01;29.27;;;22.10;;
8704;SDS011;4389;41.932;25.904;2023-11-22T09:12:35;38.40;;;25.27;;
8704;SDS011;4389;41.932;25.904;2023-11-22T09:15:04;32.87;;;23.87;;
8704;SDS011;4389;41.932;25.904;2023-11-22T09:17:36;31.83;;;21.13;;
8704;SDS011;4389;41.932;25.904;2023-11-22T09:20:08;35.33;;;25.00;;
8704;SDS011;4389;41.932;25.904;2023-11-22T09:22:36;36.20;;;23.57;;
8704;SDS011;4389;41.932;25.904;2023-11-22T09:25:10;27.37;;;20.77;;
8704;SDS011;4389;41.932;25.904;2023-11-22T09:27:37;28.63;;;21.47;;
8704;SDS011;4389;41.932;25.904;2023-11-22T09:30:05;33.73;;;24.17;;
8704;SDS011;4389;41.932;25.904;2023-11-22T09:32:44;34.73;;;23.77;;
8704;SDS011;4389;41.932;25.904;2023-11-22T09:35:12;28.33;;;24.23;;
8704;SDS011;4389;41.932;25.904;2023-11-22T09:37:40;34.87;;;25.10;;
8704;SDS011;4389;41.932;25.904;2023-11-22T09:40:10;37.20;;;24.63;;
8704;SDS011;4389;41.932;25.904;2023-11-22T09:42:43;33.23;;;24.23;;
8704;SDS011;4389;41.932;25.904;2023-11-22T09:45:16;30.60;;;23.83;;
8704;SDS011;4389;41.932;25.904;2023-11-22T09:48:01;31.93;;;24.73;;
8704;SDS011;4389;41.932;25.904;2023-11-22T09:50:31;33.03;;;25.93;;
8704;SDS011;4389;41.932;25.904;2023-11-22T09:53:07;37.80;;;23.93;;
8704;SDS011;4389;41.932;25.904;2023-11-22T09:55:37;29.93;;;21.70;;
8704;SDS011;4389;41.932;25.904;2023-11-22T09:58:08;29.20;;;21.77;;
8704;SDS011;4389;41.932;25.904;2023-11-22T10:00:39;35.40;;;27.40;;
8704;SDS011;4389;41.932;25.904;2023-11-22T10:03:09;43.17;;;30.03;;
8704;SDS011;4389;41.932;25.904;2023-11-22T10:05:39;40.67;;;27.63;;
8704;SDS011;4389;41.932;25.904;2023-11-22T10:08:05;43.60;;;31.37;;
8704;SDS011;4389;41.932;25.904;2023-11-22T10:10:35;45.00;;;31.80;;
8704;SDS011;4389;41.932;25.904;2023-11-22T10:13:03;31.23;;;26.13;;
8704;SDS011;4389;41.932;25.904;2023-11-22T10:15:30;31.57;;;25.30;;
8704;SDS011;4389;41.932;25.904;2023-11-22T10:17:58;33.67;;;24.47;;
8704;SDS011;4389;41.932;25.904;2023-11-22T10:20:36;34.80;;;24.80;;
8704;SDS011;4389;41.932;25.904;2023-11-22T10:23:07;35.53;;;28.73;;
8704;SDS011;4389;41.932;25.904;2023-11-22T10:25:35;40.77;;;29.70;;
8704;SDS011;4389;41.932;25.904;2023-11-22T10:28:03;35.57;;;28.27;;
8704;SDS011;4389;41.932;25.904;2023-11-22T10:30:30;36.50;;;26.23;;
8704;SDS011;4389;41.932;25.904;2023-11-22T10:32:59;35.30;;;27.13;;
8704;SDS011;4389;41.932;25.904;2023-11-22T10:35:26;29.47;;;21.30;;
8704;SDS011;4389;41.932;25.904;2023-11-22T10:37:55;28.50;;;22.60;;
8704;SDS011;4389;41.932;25.904;2023-11-22T10:40:21;28.20;;;22.50;;
8704;SDS011;4389;41.932;25.904;2023-11-22T10:42:49;30.73;;;23.03;;
8704;SDS011;4389;41.932;25.904;2023-11-22T10:45:18;28.30;;;23.20;;
8704;SDS011;4389;41.932;25.904;2023-11-22T10:47:47;30.03;;;22.77;;
8704;SDS011;4389;41.932;25.904;2023-11-22T10:50:20;38.60;;;22.63;;
8704;SDS011;4389;41.932;25.904;2023-11-22T10:52:47;26.03;;;20.70;;
8704;SDS011;4389;41.932;25.904;2023-11-22T10:55:22;28.60;;;22.57;;
8704;SDS011;4389;41.932;25.904;2023-11-22T10:57:54;27.27;;;22.20;;
8704;SDS011;4389;41.932;25.904;2023-11-22T11:00:27;31.40;;;22.30;;
8704;SDS011;4389;41.932;25.904;2023-11-22T11:02:59;30.40;;;22.07;;
8704;SDS011;4389;41.932;25.904;2023-11-22T11:05:30;30.67;;;21.73;;
8704;SDS011;4389;41.932;25.904;2023-11-22T11:08:00;26.93;;;21.47;;
8704;SDS011;4389;41.932;25.904;2023-11-22T11:10:39;24.50;;;20.17;;
8704;SDS011;4389;41.932;25.904;2023-11-22T11:13:06;35.63;;;22.20;;
8704;SDS011;4389;41.932;25.904;2023-11-22T11:15:34;31.40;;;22.63;;
8704;SDS011;4389;41.932;25.904;2023-11-22T11:18:01;30.30;;;23.20;;
8704;SDS011;4389;41.932;25.904;2023-11-22T11:20:31;35.93;;;24.40;;
8704;SDS011;4389;41.932;25.904;2023-11-22T11:23:01;34.23;;;21.40;;
8704;SDS011;4389;41.932;25.904;2023-11-22T11:25:30;26.83;;;21.37;;
8704;SDS011;4389;41.932;25.904;2023-11-22T11:28:00;25.13;;;21.87;;
8704;SDS011;4389;41.932;25.904;2023-11-22T11:33:13;33.37;;;22.53;;
8704;SDS011;4389;41.932;25.904;2023-11-22T11:35:43;29.17;;;22.23;;
8704;SDS011;4389;41.932;25.904;2023-11-22T11:38:12;31.23;;;23.40;;
8704;SDS011;4389;41.932;25.904;2023-11-22T11:40:40;29.40;;;23.70;;
8704;SDS011;4389;41.932;25.904;2023-11-22T11:43:10;31.33;;;22.63;;
8704;SDS011;4389;41.932;25.904;2023-11-22T11:45:38;28.60;;;24.00;;
8704;SDS011;4389;41.932;25.904;2023-11-22T11:48:11;33.03;;;25.40;;
8704;SDS011;4389;41.932;25.904;2023-11-22T11:50:39;36.03;;;27.20;;
8704;SDS011;4389;41.932;25.904;2023-11-22T11:53:06;37.80;;;28.27;;
8704;SDS011;4389;41.932;25.904;2023-11-22T11:55:33;43.97;;;29.33;;
8704;SDS011;4389;41.932;25.904;2023-11-22T11:58:04;40.63;;;31.07;;
8704;SDS011;4389;41.932;25.904;2023-11-22T12:00:34;31.40;;;25.10;;
8704;SDS011;4389;41.932;25.904;2023-11-22T12:03:05;31.27;;;23.93;;
8704;SDS011;4389;41.932;25.904;2023-11-22T12:05:35;33.00;;;24.87;;
8704;SDS011;4389;41.932;25.904;2023-11-22T12:08:02;36.60;;;23.00;;
8704;SDS011;4389;41.932;25.904;2023-11-22T12:10:30;30.93;;;24.23;;
8704;SDS011;4389;41.932;25.904;2023-11-22T12:12:57;29.53;;;24.33;;
8704;SDS011;4389;41.932;25.904;2023-11-22T12:15:24;32.73;;;24.67;;
8704;SDS011;4389;41.932;25.904;2023-11-22T12:17:52;34.57;;;25.27;;
8704;SDS011;4389;41.932;25.904;2023-11-22T12:20:22;33.37;;;25.73;;
8704;SDS011;4389;41.932;25.904;2023-11-22T12:22:51;33.93;;;26.47;;
8704;SDS011;4389;41.932;25.904;2023-11-22T12:25:18;38.10;;;27.37;;
8704;SDS011;4389;41.932;25.904;2023-11-22T12:27:46;33.67;;;26.87;;
8704;SDS011;4389;41.932;25.904;2023-11-22T12:30:32;34.23;;;28.23;;
8704;SDS011;4389;41.932;25.904;2023-11-22T12:33:02;37.77;;;29.90;;
8704;SDS011;4389;41.932;25.904;2023-11-22T12:35:30;37.77;;;29.63;;
8704;SDS011;4389;41.932;25.904;2023-11-22T12:37:59;33.53;;;29.23;;
8704;SDS011;4389;41.932;25.904;2023-11-22T12:40:27;38.67;;;30.83;;
8704;SDS011;4389;41.932;25.904;2023-11-22T12:42:57;41.70;;;30.00;;
8704;SDS011;4389;41.932;25.904;2023-11-22T12:45:24;37.50;;;27.33;;
8704;SDS011;4389;41.932;25.904;2023-11-22T12:47:54;32.23;;;24.63;;
8704;SDS011;4389;41.932;25.904;2023-11-22T12:50:32;31.87;;;25.87;;
8704;SDS011;4389;41.932;25.904;2023-11-22T12:53:07;30.77;;;23.73;;
8704;SDS011;4389;41.932;25.904;2023-11-22T12:55:36;28.47;;;22.40;;
8704;SDS011;4389;41.932;25.904;2023-11-22T12:58:03;31.87;;;22.23;;
8704;SDS011;4389;41.932;25.904;2023-11-22T13:00:30;29.10;;;20.07;;
8704;SDS011;4389;41.932;25.904;2023-11-22T13:02:58;26.53;;;19.07;;
8704;SDS011;4389;41.932;25.904;2023-11-22T13:05:25;24.47;;;20.33;;
8704;SDS011;4389;41.932;25.904;2023-11-22T13:07:53;30.23;;;21.03;;
8704;SDS011;4389;41.932;25.904;2023-11-22T13:10:20;35.40;;;21.63;;
8704;SDS011;4389;41.932;25.904;2023-11-22T13:12:50;29.67;;;22.20;;
8704;SDS011;4389;41.932;25.904;2023-11-22T13:15:20;35.33;;;25.10;;
8704;SDS011;4389;41.932;25.904;2023-11-22T13:17:49;35.43;;;27.03;;
8704;SDS011;4389;41.932;25.904;2023-11-22T13:20:20;37.87;;;26.03;;
8704;SDS011;4389;41.932;25.904;2023-11-22T13:22:48;30.07;;;26.20;;
8704;SDS011;4389;41.932;25.904;2023-11-22T13:25:17;34.40;;;25.97;;
8704;SDS011;4389;41.932;25.904;2023-11-22T13:27:45;28.50;;;25.47;;
8704;SDS011;4389;41.932;25.904;2023-11-22T13:30:13;38.07;;;28.70;;
8704;SDS011;4389;41.932;25.904;2023-11-22T13:32:43;30.50;;;24.00;;
8704;SDS011;4389;41.932;25.904;2023-11-22T13:35:10;40.27;;;25.83;;
8704;SDS011;4389;41.932;25.904;2023-11-22T13:37:40;31.70;;;24.10;;
8704;SDS011;4389;41.932;25.904;2023-11-22T13:40:09;35.97;;;25.53;;
8704;SDS011;4389;41.932;25.904;2023-11-22T13:42:42;28.47;;;23.60;;
8704;SDS011;4389;41.932;25.904;2023-11-22T13:45:10;30.17;;;24.17;;
8704;SDS011;4389;41.932;25.904;2023-11-22T13:47:41;32.43;;;26.00;;
8704;SDS011;4389;41.932;25.904;2023-11-22T13:50:09;32.90;;;24.57;;
8704;SDS011;4389;41.932;25.904;2023-11-22T13:52:38;35.63;;;24.53;;
8704;SDS011;4389;41.932;25.904;2023-11-22T13:55:06;35.63;;;24.47;;
8704;SDS011;4389;41.932;25.904;2023-11-22T13:57:37;32.47;;;26.30;;
8704;SDS011;4389;41.932;25.904;2023-11-22T14:00:07;39.37;;;28.70;;
8704;SDS011;4389;41.932;25.904;2023-11-22T14:02:38;42.77;;;27.07;;
8704;SDS011;4389;41.932;25.904;2023-11-22T14:05:07;35.60;;;27.00;;
8704;SDS011;4389;41.932;25.904;2023-11-22T14:07:37;41.57;;;27.70;;
8704;SDS011;4389;41.932;25.904;2023-11-22T14:10:05;42.27;;;29.30;;
8704;SDS011;4389;41.932;25.904;2023-11-22T14:12:35;41.97;;;29.17;;
8704;SDS011;4389;41.932;25.904;2023-11-22T14:15:02;41.20;;;29.77;;
8704;SDS011;4389;41.932;25.904;2023-11-22T14:17:32;39.57;;;28.23;;
8704;SDS011;4389;41.932;25.904;2023-11-22T14:20:00;43.13;;;29.23;;
8704;SDS011;4389;41.932;25.904;2023-11-22T14:22:28;40.17;;;29.87;;
8704;SDS011;4389;41.932;25.904;2023-11-22T14:24:56;41.87;;;30.03;;
8704;SDS011;4389;41.932;25.904;2023-11-22T14:27:22;38.10;;;29.27;;
8704;SDS011;4389;41.932;25.904;2023-11-22T14:29:49;40.67;;;29.37;;
8704;SDS011;4389;41.932;25.904;2023-11-22T14:32:17;39.93;;;30.40;;
8704;SDS011;4389;41.932;25.904;2023-11-22T14:34:47;38.43;;;29.00;;
8704;SDS011;4389;41.932;25.904;2023-11-22T14:37:14;42.27;;;29.23;;
8704;SDS011;4389;41.932;25.904;2023-11-22T14:39:42;35.20;;;28.93;;
8704;SDS011;4389;41.932;25.904;2023-11-22T14:42:09;36.00;;;27.37;;
8704;SDS011;4389;41.932;25.904;2023-11-22T14:44:36;35.50;;;25.93;;